createdAt,value
2023-04-22T00:00:54.919Z,101043.09
2023-04-22T00:03:24.481Z,101047.44
2023-04-22T00:05:51.107Z,101042.47
2023-04-22T00:08:17.660Z,101033.19
2023-04-22T00:10:44.087Z,101034.94
2023-04-22T00:13:10.530Z,101023.25
2023-04-22T00:15:37.315Z,101025.03
2023-04-22T00:18:04.042Z,101026.75
2023-04-22T00:20:33.022Z,101020.06
2023-04-22T00:22:59.474Z,101028.84
2023-04-22T00:25:26.048Z,101015.41
2023-04-22T00:27:52.481Z,101018.91
2023-04-22T00:30:19.013Z,101032.47
2023-04-22T00:32:45.500Z,101026.59
2023-04-22T00:35:12.176Z,101024.19
2023-04-22T00:37:38.651Z,101024.31
2023-04-22T00:40:06.892Z,101029.41
2023-04-22T00:42:33.456Z,101023.56
2023-04-22T00:45:00.632Z,101023.72
2023-04-22T00:47:27.994Z,101024.53
2023-04-22T00:49:55.019Z,101024.53
2023-04-22T00:52:21.429Z,101030.59
2023-04-22T00:54:49.579Z,101032.34
2023-04-22T00:57:16.968Z,101039.22
2023-04-22T00:59:44.311Z,101034.19
2023-04-22T01:02:11.498Z,101037.59
2023-04-22T01:04:38.778Z,101041.91
2023-04-22T01:07:05.471Z,101041.91
2023-04-22T01:09:32.157Z,101039.44
2023-04-22T01:11:58.652Z,101037.81
2023-04-22T01:14:25.501Z,101035.38
2023-04-22T01:16:56.427Z,101037.13
2023-04-22T01:19:23.782Z,101039.72
2023-04-22T01:21:54.356Z,101034.72
2023-04-22T01:24:21.252Z,101038.13
2023-04-22T01:26:48.688Z,101040.75
2023-04-22T01:29:15.550Z,101039.03
2023-04-22T01:31:42.192Z,101040.00
2023-04-22T01:34:09.351Z,101036.75
2023-04-22T01:36:35.924Z,101033.38
2023-04-22T01:39:02.499Z,101035.91
2023-04-22T01:41:29.614Z,101035.06
2023-04-22T01:43:58.488Z,101038.50
2023-04-22T01:46:25.007Z,101034.25
2023-04-22T01:48:51.652Z,101037.66
2023-04-22T01:51:21.971Z,101030.88
2023-04-22T01:53:48.798Z,101035.16
2023-04-22T01:56:16.022Z,101028.41
2023-04-22T01:58:42.731Z,101031.81
2023-04-22T02:01:10.989Z,101034.41
2023-04-22T02:03:38.053Z,101034.41
2023-04-22T02:06:05.043Z,101039.53
2023-04-22T02:08:31.451Z,101029.38
2023-04-22T02:10:59.440Z,101028.53
2023-04-22T02:13:25.815Z,101034.47
2023-04-22T02:15:52.465Z,101027.72
2023-04-22T02:18:19.566Z,101028.63
2023-04-22T02:20:45.945Z,101027.00
2023-04-22T02:23:12.425Z,101027.09
2023-04-22T02:25:39.561Z,101026.25
2023-04-22T02:28:05.976Z,101025.41
2023-04-22T02:30:32.370Z,101025.34
2023-04-22T02:32:58.820Z,101021.97
2023-04-22T02:35:25.404Z,101018.56
2023-04-22T02:37:51.770Z,101016.88
2023-04-22T02:40:18.160Z,101013.50
2023-04-22T02:42:44.619Z,101012.69
2023-04-22T02:45:11.432Z,101020.31
2023-04-22T02:47:37.994Z,101011.03
2023-04-22T02:50:04.749Z,101002.50
2023-04-22T02:52:31.172Z,101003.44
2023-04-22T02:54:57.755Z,101001.78
2023-04-22T02:57:24.185Z,101006.91
2023-04-22T02:59:50.929Z,101006.94
2023-04-22T03:02:17.409Z,101006.97
2023-04-22T03:04:43.918Z,101004.44
2023-04-22T03:07:10.907Z,101011.19
2023-04-22T03:09:37.481Z,101003.59
2023-04-22T03:12:04.392Z,100992.63
2023-04-22T03:14:30.831Z,100990.91
2023-04-22T03:16:57.341Z,100987.50
2023-04-22T03:19:23.790Z,100987.50
2023-04-22T03:21:50.248Z,100991.69
2023-04-22T03:24:16.845Z,100991.69
2023-04-22T03:26:43.288Z,100990.84
2023-04-22T03:29:09.711Z,100990.00
2023-04-22T03:31:37.543Z,100985.75
2023-04-22T03:34:04.850Z,100991.63
2023-04-22T03:36:31.319Z,100987.38
2023-04-22T03:38:57.794Z,100983.13
2023-04-22T03:41:26.381Z,100978.94
2023-04-22T03:43:52.889Z,100970.47
2023-04-22T03:46:19.447Z,100964.63
2023-04-22T03:48:45.923Z,100969.69
2023-04-22T03:51:12.291Z,100973.94
2023-04-22T03:53:38.695Z,100962.06
2023-04-22T03:56:05.473Z,100965.47
2023-04-22T03:58:32.578Z,100960.31
2023-04-22T04:00:58.987Z,100958.63
2023-04-22T04:03:27.997Z,100959.44
2023-04-22T04:05:56.925Z,100962.81
2023-04-22T04:08:23.359Z,100954.31
2023-04-22T04:10:49.779Z,100943.31
2023-04-22T04:13:16.131Z,100946.69
2023-04-22T04:15:42.986Z,100943.28
2023-04-22T04:18:09.684Z,100945.78
2023-04-22T04:20:36.212Z,100934.78
2023-04-22T04:23:02.743Z,100933.88
2023-04-22T04:25:37.588Z,100929.72
2023-04-22T04:28:09.357Z,100935.66
2023-04-22T04:30:36.691Z,100932.22
2023-04-22T04:33:07.396Z,100939.00
2023-04-22T04:35:35.484Z,100935.53
2023-04-22T04:38:02.311Z,100929.59
2023-04-22T04:40:31.972Z,100927.84
2023-04-22T04:42:59.085Z,100932.97
2023-04-22T04:45:27.453Z,100946.53
2023-04-22T04:47:54.645Z,100936.34
2023-04-22T04:50:21.892Z,100926.19
2023-04-22T04:52:52.807Z,100921.06
2023-04-22T04:55:19.572Z,100913.38
2023-04-22T04:57:46.099Z,100909.94
2023-04-22T05:00:14.165Z,100914.19
2023-04-22T05:02:41.275Z,100916.66
2023-04-22T05:05:08.710Z,100913.22
2023-04-22T05:07:35.481Z,100910.66
2023-04-22T05:10:01.867Z,100913.19
2023-04-22T05:12:28.251Z,100911.47
2023-04-22T05:14:54.664Z,100920.78
2023-04-22T05:17:21.100Z,100918.25
2023-04-22T05:19:47.575Z,100923.31
2023-04-22T05:22:14.029Z,100921.56
2023-04-22T05:24:40.619Z,100924.16
2023-04-22T05:27:07.982Z,100935.16
2023-04-22T05:29:34.446Z,100927.44
2023-04-22T05:32:01.244Z,100929.13
2023-04-22T05:34:27.916Z,100932.44
2023-04-22T05:36:54.696Z,100934.09
2023-04-22T05:39:21.033Z,100929.00
2023-04-22T05:41:47.429Z,100929.88
2023-04-22T05:44:14.017Z,100935.81
2023-04-22T05:46:40.616Z,100933.28
2023-04-22T05:49:06.962Z,100929.78
2023-04-22T05:51:33.475Z,100934.78
2023-04-22T05:53:59.875Z,100938.88
2023-04-22T05:56:26.414Z,100939.63
2023-04-22T05:58:52.841Z,100932.75
2023-04-22T06:01:19.278Z,100924.97
2023-04-22T06:03:45.909Z,100930.84
2023-04-22T06:06:12.813Z,100929.09
2023-04-22T06:08:39.194Z,100927.25
2023-04-22T06:11:05.726Z,100927.16
2023-04-22T06:13:32.150Z,100927.06
2023-04-22T06:15:58.934Z,100921.88
2023-04-22T06:18:26.513Z,100913.25
2023-04-22T06:20:53.960Z,100917.38
2023-04-22T06:23:20.550Z,100920.59
2023-04-22T06:25:47.474Z,100916.22
2023-04-22T06:28:13.961Z,100911.06
2023-04-22T06:30:40.416Z,100906.69
2023-04-22T06:33:06.880Z,100903.13
2023-04-22T06:35:33.677Z,100898.63
2023-04-22T06:38:00.182Z,100901.88
2023-04-22T06:40:27.739Z,100894.00
2023-04-22T06:42:54.273Z,100891.28
2023-04-22T06:45:20.804Z,100890.13
2023-04-22T06:47:47.398Z,100887.34
2023-04-22T06:50:13.858Z,100877.75
2023-04-22T06:52:40.382Z,100879.25
2023-04-22T06:55:07.212Z,100875.44
2023-04-22T06:57:33.713Z,100872.59
2023-04-22T07:00:00.266Z,100871.41
2023-04-22T07:02:26.892Z,100878.72
2023-04-22T07:04:53.549Z,100870.81
2023-04-22T07:07:20.061Z,100866.34
2023-04-22T07:09:46.445Z,100855.19
2023-04-22T07:12:12.976Z,100853.34
2023-04-22T07:14:44.481Z,100849.81
2023-04-22T07:17:11.693Z,100860.59
2023-04-22T07:19:38.952Z,100865.56
2023-04-22T07:22:06.786Z,100867.78
2023-04-22T07:24:33.327Z,100856.56
2023-04-22T07:26:59.677Z,100858.25
2023-04-22T07:29:26.075Z,100866.53
2023-04-22T07:31:52.479Z,100868.81
2023-04-22T07:34:19.156Z,100866.75
2023-04-22T07:36:45.684Z,100854.34
2023-04-22T07:39:12.225Z,100839.22
2023-04-22T07:41:38.651Z,100839.56
2023-04-22T07:44:06.191Z,100856.28
2023-04-22T07:46:32.753Z,100862.16
2023-04-22T07:49:01.850Z,100864.41
2023-04-22T07:51:28.505Z,100864.69
2023-04-22T07:53:54.958Z,100860.78
2023-04-22T07:56:22.772Z,100863.75
2023-04-22T07:58:49.259Z,100871.00
2023-04-22T08:01:18.035Z,100875.59
2023-04-22T08:03:46.347Z,100867.19
2023-04-22T08:06:13.148Z,100870.75
2023-04-22T08:08:39.638Z,100874.66
2023-04-22T08:11:07.510Z,100875.22
2023-04-22T08:13:34.028Z,100862.00
2023-04-22T08:16:03.321Z,100862.50
2023-04-22T08:18:29.920Z,100846.72
2023-04-22T08:20:56.546Z,100833.38
2023-04-22T08:23:23.325Z,100830.19
2023-04-22T08:25:50.118Z,100830.50
2023-04-22T08:28:16.629Z,100830.16
2023-04-22T08:30:43.058Z,100817.94
2023-04-22T08:33:09.599Z,100807.22
2023-04-22T08:35:36.813Z,100800.63
2023-04-22T08:38:03.390Z,100797.53
2023-04-22T08:40:30.102Z,100803.31
2023-04-22T08:42:57.354Z,100802.97
2023-04-22T08:45:24.204Z,100805.88
2023-04-22T08:47:52.400Z,100799.41
2023-04-22T08:50:21.429Z,100798.50
2023-04-22T08:52:48.124Z,100800.66
2023-04-22T08:55:14.671Z,100795.88
2023-04-22T08:57:41.658Z,100798.75
2023-04-22T09:00:11.442Z,100797.63
2023-04-22T09:02:39.063Z,100792.44
2023-04-22T09:05:07.032Z,100793.22
2023-04-22T09:07:33.534Z,100792.06
2023-04-22T09:09:59.945Z,100791.09
2023-04-22T09:12:26.476Z,100784.84
2023-04-22T09:14:54.480Z,100786.44
2023-04-22T09:17:37.156Z,100771.66
2023-04-22T09:20:06.798Z,100766.28
2023-04-22T09:22:46.445Z,100765.94
2023-04-22T09:25:16.291Z,100754.31
2023-04-22T09:27:42.886Z,100760.94
2023-04-22T09:30:10.199Z,100759.31
2023-04-22T09:32:37.754Z,100756.72
2023-04-22T09:35:04.581Z,100752.03
2023-04-22T09:37:42.486Z,100743.97
2023-04-22T09:40:22.197Z,100735.97
2023-04-22T09:42:53.451Z,100737.63
2023-04-22T09:45:26.488Z,100722.69
2023-04-22T09:47:54.917Z,100716.97
2023-04-22T09:50:24.173Z,100713.44
2023-04-22T09:52:56.219Z,100719.38
2023-04-22T09:55:27.732Z,100724.09
2023-04-22T09:57:55.724Z,100716.03
2023-04-22T10:00:29.510Z,100719.38
2023-04-22T10:02:56.060Z,100707.03
2023-04-22T10:05:22.706Z,100717.94
2023-04-22T10:07:49.216Z,100709.13
2023-04-22T10:10:15.839Z,100711.72
2023-04-22T10:12:43.154Z,100706.34
2023-04-22T10:15:09.858Z,100705.75
2023-04-22T10:17:39.047Z,100704.66
2023-04-22T10:20:13.702Z,100705.31
2023-04-22T10:22:42.836Z,100704.50
2023-04-22T10:25:23.460Z,100705.00
2023-04-22T10:28:03.439Z,100701.31
2023-04-22T10:30:32.925Z,100710.34
2023-04-22T10:33:28.486Z,100712.91
2023-04-22T10:36:05.518Z,100717.56
2023-04-22T10:38:36.021Z,100716.31
2023-04-22T10:41:03.975Z,100713.25
2023-04-22T10:43:46.944Z,100713.78
2023-04-22T10:46:35.042Z,100720.53
2023-04-22T10:49:08.311Z,100721.34
2023-04-22T10:51:42.087Z,100720.97
2023-04-22T10:54:31.457Z,100724.50
2023-04-22T10:57:02.038Z,100725.97
2023-04-22T10:59:28.731Z,100731.19
2023-04-22T11:01:55.441Z,100731.50
2023-04-22T11:04:23.364Z,100732.09
2023-04-22T11:07:16.055Z,100741.41
2023-04-22T11:09:47.241Z,100737.56
2023-04-22T11:12:42.714Z,100735.88
2023-04-22T11:15:10.446Z,100736.47
2023-04-22T11:17:38.116Z,100733.44
2023-04-22T11:20:06.581Z,100739.38
2023-04-22T11:22:37.753Z,100731.78
2023-04-22T11:25:05.702Z,100727.44
2023-04-22T11:27:32.767Z,100719.25
2023-04-22T11:30:11.016Z,100721.66
2023-04-22T11:32:39.714Z,100729.25
2023-04-22T11:35:08.408Z,100734.25
2023-04-22T11:37:48.739Z,100738.56
2023-04-22T11:40:29.969Z,100739.69
2023-04-22T11:42:59.617Z,100739.06
2023-04-22T11:45:27.126Z,100735.47
2023-04-22T11:47:53.791Z,100737.03
2023-04-22T11:50:28.780Z,100744.88
2023-04-22T11:52:56.808Z,100756.22
2023-04-22T11:55:34.855Z,100776.22
2023-04-22T11:58:10.248Z,100761.91
2023-04-22T12:00:40.647Z,100751.50
2023-04-22T12:03:15.187Z,100769.28
2023-04-22T12:05:43.623Z,100767.06
2023-04-22T12:08:21.222Z,100764.03
2023-04-22T12:10:50.338Z,100762.03
2023-04-22T12:13:21.360Z,100761.53
2023-04-22T12:15:48.733Z,100754.28
2023-04-22T12:18:15.206Z,100756.34
2023-04-22T12:20:42.622Z,100756.72
2023-04-22T12:23:14.491Z,100766.16
2023-04-22T12:25:42.384Z,100761.88
2023-04-22T12:28:08.900Z,100758.66
2023-04-22T12:30:35.438Z,100757.72
2023-04-22T12:33:02.100Z,100761.75
2023-04-22T12:35:28.609Z,100766.31
2023-04-22T12:37:55.007Z,100774.97
2023-04-22T12:40:21.444Z,100773.47
2023-04-22T12:42:47.830Z,100770.38
2023-04-22T12:45:14.323Z,100769.53
2023-04-22T12:47:40.766Z,100766.59
2023-04-22T12:50:07.618Z,100776.00
2023-04-22T12:52:35.166Z,100772.72
2023-04-22T12:55:01.827Z,100769.59
2023-04-22T12:57:28.465Z,100767.69
2023-04-22T12:59:55.420Z,100766.72
2023-04-22T13:02:21.948Z,100774.53
2023-04-22T13:04:48.437Z,100764.88
2023-04-22T13:07:14.902Z,100758.97
2023-04-22T13:09:42.041Z,100759.72
2023-04-22T13:12:08.809Z,100747.59
2023-04-22T13:14:35.188Z,100748.66
2023-04-22T13:17:01.657Z,100752.84
2023-04-22T13:19:29.540Z,100760.56
2023-04-22T13:21:55.927Z,100762.25
2023-04-22T13:24:22.388Z,100761.47
2023-04-22T13:26:48.815Z,100772.84
2023-04-22T13:29:15.438Z,100771.41
2023-04-22T13:31:43.738Z,100771.81
2023-04-22T13:34:11.267Z,100777.88
2023-04-22T13:36:38.028Z,100778.00
2023-04-22T13:39:04.712Z,100788.38
2023-04-22T13:41:31.100Z,100778.22
2023-04-22T13:43:59.555Z,100781.84
2023-04-22T13:46:27.069Z,100782.69
2023-04-22T13:48:54.315Z,100785.50
2023-04-22T13:51:20.821Z,100791.88
2023-04-22T13:53:47.252Z,100795.63
2023-04-22T13:56:14.021Z,100786.13
2023-04-22T13:58:42.388Z,100789.66
2023-04-22T14:01:09.319Z,100792.66
2023-04-22T14:03:36.397Z,100792.78
2023-04-22T14:06:03.873Z,100789.59
2023-04-22T14:08:30.447Z,100783.13
2023-04-22T14:10:57.200Z,100781.22
2023-04-22T14:13:23.660Z,100779.84
2023-04-22T14:15:50.699Z,100773.50
2023-04-22T14:18:17.255Z,100778.31
2023-04-22T14:20:45.130Z,100780.59
2023-04-22T14:23:11.863Z,100777.84
2023-04-22T14:25:38.362Z,100776.25
2023-04-22T14:28:05.433Z,100780.47
2023-04-22T14:30:31.877Z,100779.72
2023-04-22T14:32:58.710Z,100771.22
2023-04-22T14:35:25.221Z,100772.97
2023-04-22T14:37:51.654Z,100776.28
2023-04-22T14:40:19.973Z,100771.13
2023-04-22T14:42:46.982Z,100772.88
2023-04-22T14:45:14.687Z,100777.13
2023-04-22T14:47:41.271Z,100775.25
2023-04-22T14:50:07.888Z,100782.41
2023-04-22T14:52:34.487Z,100777.41
2023-04-22T14:55:11.863Z,100765.75
2023-04-22T14:57:46.919Z,100775.88
2023-04-22T15:00:13.985Z,100771.63
2023-04-22T15:02:40.789Z,100777.69
2023-04-22T15:05:07.658Z,100776.09
2023-04-22T15:07:35.246Z,100777.34
2023-04-22T15:10:01.964Z,100781.53
2023-04-22T15:12:28.782Z,100778.97
2023-04-22T15:14:55.337Z,100778.09
2023-04-22T15:17:21.910Z,100779.03
2023-04-22T15:19:48.610Z,100782.78
2023-04-22T15:22:15.208Z,100787.22
2023-04-22T15:24:41.788Z,100790.09
2023-04-22T15:27:08.391Z,100786.88
2023-04-22T15:29:35.069Z,100789.59
2023-04-22T15:32:02.556Z,100792.84
2023-04-22T15:34:29.345Z,100792.94
2023-04-22T15:36:55.776Z,100787.03
2023-04-22T15:39:23.702Z,100787.28
2023-04-22T15:41:50.190Z,100791.94
2023-04-22T15:44:16.903Z,100796.66
2023-04-22T15:46:46.030Z,100800.75
2023-04-22T15:49:13.665Z,100805.06
2023-04-22T15:51:40.914Z,100803.69
2023-04-22T15:54:08.679Z,100803.59
2023-04-22T15:56:35.945Z,100803.16
2023-04-22T15:59:02.460Z,100795.03
2023-04-22T16:01:29.101Z,100807.38
2023-04-22T16:03:58.950Z,100797.41
2023-04-22T16:06:25.795Z,100814.94
2023-04-22T16:08:52.560Z,100816.31
2023-04-22T16:11:19.157Z,100820.16
2023-04-22T16:13:46.343Z,100811.88
2023-04-22T16:16:13.064Z,100816.59
2023-04-22T16:18:42.081Z,100821.34
2023-04-22T16:21:10.583Z,100829.06
2023-04-22T16:23:37.614Z,100837.63
2023-04-22T16:26:05.688Z,100834.88
2023-04-22T16:28:32.630Z,100837.06
2023-04-22T16:30:59.244Z,100845.06
2023-04-22T16:33:26.066Z,100845.13
2023-04-22T16:35:52.520Z,100846.16
2023-04-22T16:38:19.161Z,100848.72
2023-04-22T16:40:45.837Z,100863.47
2023-04-22T16:43:12.923Z,100864.78
2023-04-22T16:45:39.561Z,100865.13
2023-04-22T16:48:06.266Z,100868.56
2023-04-22T16:50:32.741Z,100871.31
2023-04-22T16:52:59.190Z,100872.22
2023-04-22T16:55:28.650Z,100867.09
2023-04-22T16:57:57.766Z,100864.66
2023-04-22T17:00:25.900Z,100858.19
2023-04-22T17:02:52.422Z,100855.91
2023-04-22T17:05:18.992Z,100849.13
2023-04-22T17:07:45.847Z,100852.47
2023-04-22T17:10:12.340Z,100846.38
2023-04-22T17:12:38.751Z,100838.22
2023-04-22T17:15:06.344Z,100837.88
2023-04-22T17:17:32.771Z,100843.00
2023-04-22T17:19:59.336Z,100841.31
2023-04-22T17:22:28.848Z,100842.03
2023-04-22T17:24:58.792Z,100842.81
2023-04-22T17:27:28.065Z,100840.94
2023-04-22T17:29:54.756Z,100842.47
2023-04-22T17:32:21.316Z,100845.47
2023-04-22T17:34:48.056Z,100849.44
2023-04-22T17:37:14.566Z,100856.31
2023-04-22T17:39:41.928Z,100855.50
2023-04-22T17:42:08.453Z,100841.88
2023-04-22T17:44:36.026Z,100853.00
2023-04-22T17:47:03.498Z,100858.41
2023-04-22T17:49:31.052Z,100863.03
2023-04-22T17:51:57.582Z,100866.78
2023-04-22T17:54:26.808Z,100866.13
2023-04-22T17:56:53.298Z,100864.66
2023-04-22T17:59:19.751Z,100866.59
2023-04-22T18:01:46.529Z,100875.19
2023-04-22T18:04:13.293Z,100875.25
2023-04-22T18:06:39.984Z,100875.25
2023-04-22T18:09:06.555Z,100874.53
2023-04-22T18:11:33.034Z,100880.47
2023-04-22T18:13:59.567Z,100883.75
2023-04-22T18:16:29.279Z,100889.56
2023-04-22T18:18:59.793Z,100894.53
2023-04-22T18:21:29.862Z,100900.66
2023-04-22T18:23:56.352Z,100895.63
2023-04-22T18:26:23.127Z,100906.84
2023-04-22T18:28:49.647Z,100913.72
2023-04-22T18:31:16.088Z,100913.72
2023-04-22T18:33:42.682Z,100922.34
2023-04-22T18:36:09.403Z,100921.69
2023-04-22T18:38:35.918Z,100927.78
2023-04-22T18:41:02.374Z,100926.31
2023-04-22T18:43:28.811Z,100928.13
2023-04-22T18:45:58.135Z,100927.50
2023-04-22T18:48:26.957Z,100931.03
2023-04-22T18:50:53.476Z,100932.75
2023-04-22T18:53:19.857Z,100946.47
2023-04-22T18:55:46.416Z,100949.16
2023-04-22T18:58:12.797Z,100948.31
2023-04-22T19:00:39.508Z,100950.06
2023-04-22T19:03:06.811Z,100968.13
2023-04-22T19:05:33.604Z,100969.94
2023-04-22T19:08:00.104Z,100970.91
2023-04-22T19:10:29.624Z,100967.53
2023-04-22T19:12:56.544Z,100976.16
2023-04-22T19:15:23.170Z,100972.78
2023-04-22T19:17:49.696Z,100976.28
2023-04-22T19:20:16.198Z,100977.28
2023-04-22T19:22:43.632Z,100983.25
2023-04-22T19:25:10.885Z,100977.34
2023-04-22T19:27:37.268Z,100980.81
2023-04-22T19:30:05.518Z,100991.06
2023-04-22T19:32:31.982Z,100990.22
2023-04-22T19:34:58.526Z,100986.91
2023-04-22T19:37:26.045Z,100988.78
2023-04-22T19:39:52.630Z,100994.00
2023-04-22T19:42:21.020Z,100989.09
2023-04-22T19:44:48.416Z,100992.63
2023-04-22T19:47:15.376Z,100992.84
2023-04-22T19:49:42.319Z,100987.03
2023-04-22T19:52:13.977Z,100986.31
2023-04-22T19:54:41.572Z,100981.31
2023-04-22T19:57:08.254Z,100984.81
2023-04-22T19:59:35.169Z,100990.00
2023-04-22T20:02:04.293Z,100994.38
2023-04-22T20:04:32.504Z,100999.53
2023-04-22T20:07:02.609Z,100994.53
2023-04-22T20:09:32.670Z,100995.44
2023-04-22T20:11:59.727Z,100990.44
2023-04-22T20:14:26.842Z,100993.94
2023-04-22T20:16:56.322Z,100989.78
2023-04-22T20:19:22.856Z,100988.91
2023-04-22T20:21:50.539Z,100991.53
2023-04-22T20:24:19.692Z,100997.63
2023-04-22T20:26:47.753Z,100996.81
2023-04-22T20:29:14.870Z,100990.13
2023-04-22T20:31:41.742Z,100987.66
2023-04-22T20:34:08.293Z,100986.06
2023-04-22T20:36:38.643Z,100985.41
2023-04-22T20:39:05.977Z,100982.06
2023-04-22T20:41:38.704Z,100980.44
2023-04-22T20:44:05.531Z,100976.25
2023-04-22T20:46:32.510Z,100974.56
2023-04-22T20:49:00.409Z,100967.72
2023-04-22T20:51:28.480Z,100966.06
2023-04-22T20:53:56.362Z,100975.53
2023-04-22T20:56:23.321Z,100968.78
2023-04-22T20:58:49.686Z,100967.06
2023-04-22T21:01:16.622Z,100969.66
2023-04-22T21:03:52.671Z,100964.56
2023-04-22T21:06:20.609Z,100976.53
2023-04-22T21:08:50.527Z,100977.47
2023-04-22T21:11:17.342Z,100975.78
2023-04-22T21:13:45.092Z,100988.53
2023-04-22T21:16:13.833Z,100973.25
2023-04-22T21:18:44.308Z,100974.28
2023-04-22T21:21:12.143Z,100969.28
2023-04-22T21:23:41.864Z,100965.88
2023-04-22T21:26:09.714Z,100969.41
2023-04-22T21:28:37.011Z,100966.88
2023-04-22T21:31:03.770Z,100966.16
2023-04-22T21:33:32.745Z,100973.88
2023-04-22T21:35:59.399Z,100974.84
2023-04-22T21:38:29.291Z,100967.31
2023-04-22T21:40:55.897Z,100963.06
2023-04-22T21:43:22.423Z,100964.78
2023-04-22T21:45:48.985Z,100958.94
2023-04-22T21:48:15.602Z,100969.28
2023-04-22T21:50:42.019Z,100975.28
2023-04-22T21:53:08.436Z,100978.69
2023-04-22T21:55:34.990Z,100986.34
2023-04-22T21:58:01.487Z,100983.88
2023-04-22T22:00:28.038Z,100984.84
2023-04-22T22:02:56.223Z,100985.63
2023-04-22T22:05:22.943Z,100982.31
2023-04-22T22:07:49.464Z,100986.63
2023-04-22T22:10:19.091Z,100980.69
2023-04-22T22:12:49.546Z,100987.44
2023-04-22T22:15:16.672Z,100985.75
2023-04-22T22:17:44.126Z,100979.78
2023-04-22T22:20:13.489Z,100984.84
2023-04-22T22:22:43.934Z,100984.81
2023-04-22T22:25:12.418Z,100988.19
2023-04-22T22:27:48.583Z,100992.41
2023-04-22T22:30:16.636Z,100988.97
2023-04-22T22:32:43.230Z,100991.56
2023-04-22T22:35:10.374Z,100989.81
2023-04-22T22:37:36.925Z,100988.09
2023-04-22T22:40:04.043Z,100992.28
2023-04-22T22:42:30.584Z,100992.28
2023-04-22T22:44:57.638Z,100995.66
2023-04-22T22:47:27.182Z,101004.09
2023-04-22T22:49:53.653Z,101005.88
2023-04-22T22:52:20.085Z,101005.06
2023-04-22T22:54:48.785Z,101015.25
2023-04-22T22:57:15.689Z,101005.97
2023-04-22T22:59:42.126Z,101001.69
2023-04-22T23:02:08.657Z,101008.50
2023-04-22T23:04:37.159Z,101007.63
2023-04-22T23:07:03.810Z,101004.22
2023-04-22T23:09:30.266Z,100999.09
2023-04-22T23:11:56.714Z,101007.63
2023-04-22T23:14:28.263Z,101003.38
2023-04-22T23:16:54.689Z,101014.41
2023-04-22T23:19:21.803Z,101006.72
2023-04-22T23:21:48.743Z,101005.00
2023-04-22T23:24:15.702Z,101000.75
2023-04-22T23:26:42.916Z,100996.47
2023-04-22T23:29:09.846Z,100998.22
2023-04-22T23:31:37.055Z,100994.78
2023-04-22T23:34:05.588Z,100994.78
2023-04-22T23:36:36.397Z,100990.50
2023-04-22T23:39:04.878Z,100990.53
2023-04-22T23:41:31.367Z,100977.78
2023-04-22T23:43:57.864Z,100980.28
2023-04-22T23:46:27.165Z,100970.94
2023-04-22T23:48:56.023Z,100964.94
2023-04-22T23:51:22.639Z,100962.41
2023-04-22T23:53:49.081Z,100959.81
2023-04-22T23:56:20.142Z,100952.09
2023-04-22T23:58:47.546Z,100953.81
